createdAt,value
2022-11-09T00:00:42.074Z,77.96
2022-11-09T00:03:10.931Z,78.18
2022-11-09T00:05:38.218Z,77.67
2022-11-09T00:08:06.737Z,77.44
2022-11-09T00:10:34.067Z,77.81
2022-11-09T00:13:01.372Z,77.74
2022-11-09T00:15:28.685Z,77.91
2022-11-09T00:17:55.696Z,77.33
2022-11-09T00:20:22.605Z,77.57
2022-11-09T00:22:50.408Z,77.47
2022-11-09T00:25:17.418Z,77.64
2022-11-09T00:27:44.511Z,77.35
2022-11-09T00:30:11.935Z,77.38
2022-11-09T00:32:39.129Z,77.46
2022-11-09T00:35:07.298Z,77.58
2022-11-09T00:37:35.501Z,77.58
2022-11-09T00:40:02.556Z,77.85
2022-11-09T00:42:29.531Z,77.35
2022-11-09T00:44:57.324Z,77.40
2022-11-09T00:47:24.329Z,77.45
2022-11-09T00:49:52.321Z,77.25
2022-11-09T00:52:19.448Z,77.31
2022-11-09T00:54:46.538Z,77.43
2022-11-09T00:57:14.045Z,77.52
2022-11-09T00:59:44.256Z,77.40
2022-11-09T01:02:11.397Z,77.36
2022-11-09T01:04:38.341Z,77.64
2022-11-09T01:07:08.129Z,77.34
2022-11-09T01:09:35.370Z,77.26
2022-11-09T01:12:02.625Z,77.05
2022-11-09T01:14:29.720Z,77.03
2022-11-09T01:16:56.845Z,77.10
2022-11-09T01:19:26.238Z,76.97
2022-11-09T01:21:53.370Z,77.25
2022-11-09T01:24:20.905Z,77.16
2022-11-09T01:26:48.250Z,77.23
2022-11-09T01:29:15.123Z,76.72
2022-11-09T01:31:42.139Z,77.26
2022-11-09T01:34:09.121Z,76.75
2022-11-09T01:36:36.109Z,76.81
2022-11-09T01:39:03.037Z,76.62
2022-11-09T01:41:30.072Z,76.61
2022-11-09T01:44:07.068Z,76.94
2022-11-09T01:47:02.395Z,76.55
2022-11-09T01:49:49.757Z,76.66
2022-11-09T01:52:38.401Z,76.91
2022-11-09T01:55:11.927Z,76.61
2022-11-09T01:57:53.524Z,77.03
2022-11-09T02:00:20.570Z,76.52
2022-11-09T02:02:57.031Z,76.43
2022-11-09T02:05:28.597Z,77.00
2022-11-09T02:07:56.967Z,76.59
2022-11-09T02:10:32.989Z,76.59
2022-11-09T02:13:00.958Z,76.38
2022-11-09T02:15:28.118Z,76.39
2022-11-09T02:17:55.905Z,77.06
2022-11-09T02:20:23.743Z,76.28
2022-11-09T02:22:52.170Z,76.47
2022-11-09T02:25:20.996Z,76.95
2022-11-09T02:27:49.529Z,76.64
2022-11-09T02:30:19.308Z,76.90
2022-11-09T02:32:47.895Z,76.34
2022-11-09T02:35:14.870Z,76.67
2022-11-09T02:37:49.489Z,76.61
2022-11-09T02:40:19.667Z,76.62
2022-11-09T02:42:46.931Z,76.95
2022-11-09T02:45:13.994Z,76.76
2022-11-09T02:47:42.192Z,76.92
2022-11-09T02:50:09.855Z,76.65
2022-11-09T02:52:36.817Z,76.67
2022-11-09T02:55:04.289Z,76.53
2022-11-09T02:57:31.198Z,76.82
2022-11-09T02:59:59.697Z,76.29
2022-11-09T03:02:27.085Z,76.40
2022-11-09T03:04:54.285Z,77.25
2022-11-09T03:07:21.597Z,76.97
2022-11-09T03:09:48.642Z,76.72
2022-11-09T03:12:36.226Z,77.05
2022-11-09T03:15:10.806Z,76.98
2022-11-09T03:17:42.874Z,77.60
2022-11-09T03:20:11.276Z,77.09
2022-11-09T03:22:39.724Z,76.87
2022-11-09T03:25:07.237Z,77.27
2022-11-09T03:27:34.156Z,77.00
2022-11-09T03:30:02.528Z,76.83
2022-11-09T03:32:30.364Z,77.05
2022-11-09T03:34:57.525Z,77.04
2022-11-09T03:37:24.531Z,76.69
2022-11-09T03:39:51.550Z,77.63
2022-11-09T03:42:18.594Z,77.29
2022-11-09T03:44:45.497Z,77.79
2022-11-09T03:47:12.556Z,77.47
2022-11-09T03:49:39.443Z,77.22
2022-11-09T03:52:06.341Z,76.88
2022-11-09T03:54:33.342Z,77.26
2022-11-09T03:57:00.387Z,77.70
2022-11-09T03:59:27.352Z,77.45
2022-11-09T04:01:54.423Z,77.20
2022-11-09T04:04:21.415Z,77.55
2022-11-09T04:06:48.309Z,77.88
2022-11-09T04:09:15.396Z,77.53
2022-11-09T04:11:42.278Z,77.74
2022-11-09T04:14:09.448Z,77.38
2022-11-09T04:16:36.493Z,77.40
2022-11-09T04:19:03.656Z,77.75
2022-11-09T04:21:30.548Z,77.16
2022-11-09T04:23:57.645Z,77.33
2022-11-09T04:26:24.563Z,77.28
2022-11-09T04:28:51.527Z,77.40
2022-11-09T04:31:18.524Z,77.39
2022-11-09T04:33:50.243Z,77.42
2022-11-09T04:36:17.487Z,76.98
2022-11-09T04:38:44.409Z,77.44
2022-11-09T04:41:11.484Z,77.09
2022-11-09T04:43:38.349Z,77.06
2022-11-09T04:46:06.034Z,77.59
2022-11-09T04:48:34.956Z,77.53
2022-11-09T04:51:03.334Z,77.21
2022-11-09T04:53:30.811Z,77.76
2022-11-09T04:55:58.381Z,77.24
2022-11-09T04:58:26.217Z,77.62
2022-11-09T05:00:54.296Z,77.59
2022-11-09T05:03:22.114Z,77.63
2022-11-09T05:05:49.404Z,77.82
2022-11-09T05:08:16.405Z,77.64
2022-11-09T05:10:43.437Z,77.60
2022-11-09T05:13:12.135Z,77.53
2022-11-09T05:15:39.578Z,77.35
2022-11-09T05:18:07.889Z,77.89
2022-11-09T05:20:36.057Z,77.50
2022-11-09T05:23:22.213Z,78.23
2022-11-09T05:25:49.718Z,77.81
2022-11-09T05:28:16.796Z,77.95
2022-11-09T05:30:43.838Z,77.61
2022-11-09T05:33:10.761Z,77.57
2022-11-09T05:35:38.352Z,78.21
2022-11-09T05:38:05.288Z,77.83
2022-11-09T05:40:33.509Z,77.94
2022-11-09T05:43:00.457Z,78.05
2022-11-09T05:45:42.045Z,77.91
2022-11-09T05:48:11.601Z,77.95
2022-11-09T05:50:39.488Z,78.55
2022-11-09T05:53:18.121Z,78.34
2022-11-09T05:55:45.323Z,78.35
2022-11-09T05:58:12.367Z,78.32
2022-11-09T06:00:39.309Z,78.17
2022-11-09T06:03:08.596Z,78.45
2022-11-09T06:05:40.434Z,78.40
2022-11-09T06:08:13.156Z,78.08
2022-11-09T06:10:40.963Z,78.39
2022-11-09T06:13:08.253Z,78.54
2022-11-09T06:15:35.586Z,78.39
2022-11-09T06:18:02.569Z,78.64
2022-11-09T06:20:29.763Z,78.59
2022-11-09T06:23:02.695Z,78.69
2022-11-09T06:25:32.077Z,78.86
2022-11-09T06:27:59.282Z,78.70
2022-11-09T06:30:26.484Z,78.48
2022-11-09T06:32:59.132Z,78.84
2022-11-09T06:35:26.407Z,78.76
2022-11-09T06:37:57.759Z,78.90
2022-11-09T06:40:24.838Z,78.29
2022-11-09T06:42:51.887Z,78.85
2022-11-09T06:45:18.973Z,78.73
2022-11-09T06:47:45.922Z,78.39
2022-11-09T06:50:13.053Z,78.79
2022-11-09T06:52:39.972Z,78.13
2022-11-09T06:55:08.392Z,78.98
2022-11-09T06:57:35.287Z,78.98
2022-11-09T07:00:02.713Z,78.51
2022-11-09T07:02:31.394Z,78.57
2022-11-09T07:04:58.470Z,78.90
2022-11-09T07:07:28.173Z,78.67
2022-11-09T07:09:56.005Z,78.33
2022-11-09T07:12:23.024Z,78.89
2022-11-09T07:14:50.160Z,79.07
2022-11-09T07:17:17.198Z,78.73
2022-11-09T07:19:44.225Z,78.29
2022-11-09T07:22:11.146Z,78.79
2022-11-09T07:24:38.393Z,78.71
2022-11-09T07:27:05.405Z,78.68
2022-11-09T07:29:32.447Z,78.62
2022-11-09T07:31:59.406Z,78.71
2022-11-09T07:34:26.441Z,78.88
2022-11-09T07:36:54.386Z,78.60
2022-11-09T07:39:21.643Z,78.34
2022-11-09T07:41:49.162Z,78.95
2022-11-09T07:44:18.547Z,78.71
2022-11-09T07:46:49.208Z,78.49
2022-11-09T07:49:17.686Z,79.19
2022-11-09T07:51:44.931Z,78.91
2022-11-09T07:54:12.289Z,78.69
2022-11-09T07:56:39.334Z,78.51
2022-11-09T07:59:06.310Z,78.62
2022-11-09T08:01:33.426Z,78.54
2022-11-09T08:04:00.370Z,78.36
2022-11-09T08:06:28.353Z,78.46
2022-11-09T08:08:55.896Z,78.24
2022-11-09T08:11:23.117Z,78.14
2022-11-09T08:13:50.129Z,78.10
2022-11-09T08:16:17.292Z,77.90
2022-11-09T08:18:44.564Z,77.63
2022-11-09T08:21:11.561Z,77.99
2022-11-09T08:23:38.605Z,77.74
2022-11-09T08:26:06.633Z,77.51
2022-11-09T08:28:34.625Z,77.48
2022-11-09T08:31:05.154Z,77.14
2022-11-09T08:33:35.525Z,77.23
2022-11-09T08:36:08.055Z,77.11
2022-11-09T08:38:35.135Z,76.73
2022-11-09T08:41:02.077Z,76.93
2022-11-09T08:43:29.144Z,76.61
2022-11-09T08:45:56.106Z,76.62
2022-11-09T08:48:23.320Z,76.34
2022-11-09T08:50:55.638Z,76.33
2022-11-09T08:53:23.821Z,76.22
2022-11-09T08:55:51.139Z,76.12
2022-11-09T08:58:18.886Z,75.93
2022-11-09T09:00:46.302Z,75.83
2022-11-09T09:03:13.421Z,75.88
2022-11-09T09:05:40.534Z,75.71
2022-11-09T09:08:07.959Z,75.71
2022-11-09T09:10:38.015Z,75.20
2022-11-09T09:13:05.174Z,75.12
2022-11-09T09:15:32.215Z,75.13
2022-11-09T09:18:00.975Z,75.05
2022-11-09T09:20:28.084Z,74.95
2022-11-09T09:22:57.570Z,74.55
2022-11-09T09:25:24.907Z,74.52
2022-11-09T09:27:51.995Z,74.40
2022-11-09T09:30:19.130Z,74.20
2022-11-09T09:32:46.210Z,73.99
2022-11-09T09:35:13.142Z,74.05
2022-11-09T09:37:40.234Z,73.84
2022-11-09T09:40:07.815Z,73.70
2022-11-09T09:42:43.233Z,73.79
2022-11-09T09:45:18.588Z,73.76
2022-11-09T09:48:10.512Z,73.31
2022-11-09T09:51:03.331Z,73.46
2022-11-09T09:53:35.711Z,73.22
2022-11-09T09:56:11.928Z,73.33
2022-11-09T09:58:43.280Z,73.10
2022-11-09T10:01:22.431Z,73.02
2022-11-09T10:03:49.683Z,72.98
2022-11-09T10:06:47.448Z,72.82
2022-11-09T10:09:17.374Z,72.81
2022-11-09T10:12:01.414Z,72.65
2022-11-09T10:14:47.393Z,72.40
2022-11-09T10:17:51.710Z,72.53
2022-11-09T10:20:43.397Z,72.54
2022-11-09T10:23:18.403Z,72.50
2022-11-09T10:26:05.229Z,72.39
2022-11-09T10:28:54.183Z,72.15
2022-11-09T10:31:22.182Z,72.10
2022-11-09T10:33:57.033Z,71.93
2022-11-09T10:36:34.124Z,71.88
2022-11-09T10:39:01.948Z,71.91
2022-11-09T10:41:47.565Z,71.93
2022-11-09T10:44:33.156Z,71.52
2022-11-09T10:47:19.269Z,71.60
2022-11-09T10:50:42.408Z,71.50
2022-11-09T10:53:30.178Z,71.63
2022-11-09T10:56:21.385Z,71.37
2022-11-09T10:59:37.563Z,71.48
2022-11-09T11:02:26.302Z,71.53
2022-11-09T11:05:18.321Z,71.41
2022-11-09T11:08:30.149Z,71.12
2022-11-09T11:11:38.868Z,71.17
2022-11-09T11:14:42.787Z,71.16
2022-11-09T11:17:30.454Z,71.33
2022-11-09T11:20:35.687Z,71.23
2022-11-09T11:23:24.163Z,71.02
2022-11-09T11:26:16.394Z,71.02
2022-11-09T11:29:11.525Z,71.18
2022-11-09T11:31:57.725Z,71.06
2022-11-09T11:34:59.603Z,70.86
2022-11-09T11:37:56.791Z,71.20
2022-11-09T11:41:20.848Z,70.99
2022-11-09T11:44:43.326Z,70.85
2022-11-09T11:47:59.342Z,70.88
2022-11-09T11:51:06.819Z,70.95
2022-11-09T11:54:08.225Z,71.08
2022-11-09T11:57:27.518Z,70.85
2022-11-09T12:00:15.538Z,70.88
2022-11-09T12:03:40.517Z,71.11
2022-11-09T12:06:39.662Z,70.99
2022-11-09T12:10:10.958Z,71.07
2022-11-09T12:13:16.927Z,71.18
2022-11-09T12:16:05.636Z,71.08
2022-11-09T12:18:57.435Z,71.20
2022-11-09T12:21:42.755Z,71.03
2022-11-09T12:25:05.588Z,71.14
2022-11-09T12:27:54.479Z,71.26
2022-11-09T12:30:46.316Z,71.20
2022-11-09T12:33:53.246Z,71.35
2022-11-09T12:36:45.317Z,71.36
2022-11-09T12:39:42.589Z,71.57
2022-11-09T12:42:46.785Z,71.82
2022-11-09T12:45:38.638Z,71.86
2022-11-09T12:48:31.213Z,72.02
2022-11-09T12:51:17.557Z,72.06
2022-11-09T12:54:11.390Z,72.27
2022-11-09T12:57:00.187Z,72.34
2022-11-09T12:59:48.040Z,72.42
2022-11-09T13:02:52.388Z,72.72
2022-11-09T13:05:39.248Z,72.71
2022-11-09T13:08:29.492Z,72.76
2022-11-09T13:11:25.706Z,72.80
2022-11-09T13:14:23.219Z,72.88
2022-11-09T13:17:21.973Z,73.15
2022-11-09T13:20:54.498Z,73.32
2022-11-09T13:23:59.858Z,73.39
2022-11-09T13:26:46.500Z,73.52
2022-11-09T13:29:44.494Z,73.75
2022-11-09T13:32:33.797Z,73.64
2022-11-09T13:35:41.266Z,73.86
2022-11-09T13:38:29.966Z,74.10
2022-11-09T13:41:35.457Z,74.07
2022-11-09T13:44:32.675Z,74.42
2022-11-09T13:47:28.085Z,74.55
2022-11-09T13:50:22.137Z,74.58
2022-11-09T13:53:49.609Z,74.77
2022-11-09T13:56:39.995Z,74.88
2022-11-09T13:59:47.497Z,74.88
2022-11-09T14:02:33.279Z,75.00
2022-11-09T14:05:39.480Z,75.19
2022-11-09T14:08:40.243Z,75.27
2022-11-09T14:11:59.819Z,75.21
2022-11-09T14:15:07.172Z,75.63
2022-11-09T14:17:58.288Z,75.33
2022-11-09T14:21:08.700Z,75.75
2022-11-09T14:23:54.466Z,75.55
2022-11-09T14:26:40.019Z,75.80
2022-11-09T14:29:26.162Z,75.91
2022-11-09T14:32:28.492Z,76.04
2022-11-09T14:35:26.239Z,76.09
2022-11-09T14:38:21.824Z,76.03
2022-11-09T14:41:23.292Z,76.07
2022-11-09T14:44:27.806Z,76.38
2022-11-09T14:47:25.476Z,76.36
2022-11-09T14:50:17.624Z,76.13
2022-11-09T14:53:05.988Z,76.69
2022-11-09T14:55:53.868Z,76.58
2022-11-09T14:58:43.621Z,76.96
2022-11-09T15:01:29.321Z,76.90
2022-11-09T15:04:20.323Z,77.02
2022-11-09T15:07:06.413Z,76.50
2022-11-09T15:09:57.116Z,77.03
2022-11-09T15:12:50.626Z,77.11
2022-11-09T15:15:39.038Z,76.67
2022-11-09T15:18:33.753Z,77.18
2022-11-09T15:21:26.039Z,77.07
2022-11-09T15:24:12.030Z,76.99
2022-11-09T15:26:58.187Z,77.34
2022-11-09T15:29:44.326Z,77.21
2022-11-09T15:32:37.259Z,77.26
2022-11-09T15:35:23.169Z,77.56
2022-11-09T15:38:30.111Z,77.41
2022-11-09T15:41:21.202Z,77.24
2022-11-09T15:44:07.382Z,77.46
2022-11-09T15:46:54.298Z,77.57
2022-11-09T15:49:39.668Z,77.84
2022-11-09T15:52:25.798Z,77.86
2022-11-09T15:55:16.177Z,77.75
2022-11-09T15:58:01.644Z,77.62
2022-11-09T16:00:47.750Z,78.14
2022-11-09T16:03:33.381Z,77.86
2022-11-09T16:06:19.583Z,77.65
2022-11-09T16:09:05.041Z,77.84
2022-11-09T16:11:50.997Z,78.18
2022-11-09T16:14:37.286Z,78.40
2022-11-09T16:17:23.165Z,78.22
2022-11-09T16:20:09.657Z,78.30
2022-11-09T16:22:55.744Z,78.57
2022-11-09T16:25:41.264Z,78.87
2022-11-09T16:28:26.962Z,79.15
2022-11-09T16:31:13.371Z,78.87
2022-11-09T16:33:59.076Z,79.21
2022-11-09T16:36:49.919Z,79.12
2022-11-09T16:39:38.316Z,79.41
2022-11-09T16:42:23.756Z,78.83
2022-11-09T16:45:12.159Z,79.84
2022-11-09T16:47:58.737Z,79.46
2022-11-09T16:50:45.373Z,79.38
2022-11-09T16:53:30.917Z,79.66
2022-11-09T16:56:17.336Z,79.38
2022-11-09T16:59:02.987Z,79.65
2022-11-09T17:01:53.687Z,80.03
2022-11-09T17:04:39.196Z,80.18
2022-11-09T17:07:24.951Z,80.09
2022-11-09T17:10:12.067Z,79.99
2022-11-09T17:12:58.402Z,79.96
2022-11-09T17:15:46.513Z,80.72
2022-11-09T17:18:32.417Z,80.22
2022-11-09T17:21:18.376Z,80.80
2022-11-09T17:24:06.430Z,80.41
2022-11-09T17:26:52.186Z,79.83
2022-11-09T17:29:38.616Z,80.48
2022-11-09T17:32:28.476Z,80.31
2022-11-09T17:35:14.466Z,80.67
2022-11-09T17:38:00.324Z,80.42
2022-11-09T17:40:47.362Z,81.01
2022-11-09T17:43:36.755Z,80.93
2022-11-09T17:46:22.725Z,81.06
2022-11-09T17:49:10.321Z,80.86
2022-11-09T17:51:56.209Z,80.99
2022-11-09T17:54:41.605Z,80.76
2022-11-09T17:57:27.267Z,81.12
2022-11-09T18:00:13.588Z,80.89
2022-11-09T18:02:58.840Z,80.80
2022-11-09T18:05:45.504Z,80.88
2022-11-09T18:08:31.666Z,80.72
2022-11-09T18:11:18.070Z,80.73
2022-11-09T18:14:03.757Z,81.05
2022-11-09T18:16:49.455Z,81.38
2022-11-09T18:19:34.729Z,80.80
2022-11-09T18:22:20.018Z,81.31
2022-11-09T18:25:05.686Z,81.22
2022-11-09T18:27:52.859Z,81.07
2022-11-09T18:30:41.896Z,81.08
2022-11-09T18:33:27.544Z,81.01
2022-11-09T18:36:18.613Z,80.75
2022-11-09T18:39:04.743Z,80.89
2022-11-09T18:41:52.181Z,80.99
2022-11-09T18:44:38.688Z,80.80
2022-11-09T18:47:26.236Z,80.78
2022-11-09T18:50:13.201Z,80.97
2022-11-09T18:52:59.048Z,80.99
2022-11-09T18:55:44.431Z,80.52
2022-11-09T18:58:30.498Z,80.92
2022-11-09T19:01:16.949Z,80.72
2022-11-09T19:04:02.567Z,80.50
2022-11-09T19:06:47.960Z,80.73
2022-11-09T19:09:38.710Z,80.66
2022-11-09T19:12:26.305Z,80.51
2022-11-09T19:15:13.529Z,80.50
2022-11-09T19:18:00.421Z,80.13
2022-11-09T19:20:46.834Z,80.44
2022-11-09T19:23:34.681Z,80.29
2022-11-09T19:26:22.629Z,80.54
2022-11-09T19:29:09.674Z,80.26
2022-11-09T19:31:55.747Z,80.45
2022-11-09T19:34:42.973Z,80.11
2022-11-09T19:37:28.779Z,80.07
2022-11-09T19:40:19.063Z,79.96
2022-11-09T19:43:04.968Z,79.96
2022-11-09T19:45:50.715Z,79.75
2022-11-09T19:48:36.858Z,79.81
2022-11-09T19:51:23.657Z,79.78
2022-11-09T19:54:11.100Z,79.83
2022-11-09T19:56:58.126Z,79.91
2022-11-09T19:59:43.911Z,79.91
2022-11-09T20:02:29.768Z,79.99
2022-11-09T20:05:18.510Z,80.15
2022-11-09T20:08:05.176Z,79.86
2022-11-09T20:10:50.796Z,79.82
2022-11-09T20:13:40.980Z,79.96
2022-11-09T20:16:27.456Z,79.86
2022-11-09T20:19:14.343Z,80.04
2022-11-09T20:22:00.392Z,80.37
2022-11-09T20:24:46.022Z,79.84
2022-11-09T20:27:32.530Z,80.32
2022-11-09T20:30:18.898Z,79.99
2022-11-09T20:33:04.375Z,80.14
2022-11-09T20:35:56.390Z,80.24
2022-11-09T20:38:42.268Z,80.22
2022-11-09T20:41:28.616Z,80.49
2022-11-09T20:44:14.052Z,80.26
2022-11-09T20:46:59.870Z,80.09
2022-11-09T20:49:47.516Z,80.23
2022-11-09T20:52:32.869Z,80.32
2022-11-09T20:55:18.607Z,80.60
2022-11-09T20:58:05.294Z,80.54
2022-11-09T21:01:16.929Z,80.56
2022-11-09T21:04:02.686Z,80.72
2022-11-09T21:06:48.382Z,80.36
2022-11-09T21:09:33.772Z,80.37
2022-11-09T21:12:21.803Z,80.67
2022-11-09T21:15:08.974Z,80.77
2022-11-09T21:17:56.505Z,80.75
2022-11-09T21:20:44.287Z,80.93
2022-11-09T21:23:49.305Z,81.03
2022-11-09T21:26:53.679Z,80.45
2022-11-09T21:29:55.030Z,80.82
2022-11-09T21:32:43.481Z,80.53
2022-11-09T21:35:31.703Z,80.57
2022-11-09T21:38:18.502Z,81.24
2022-11-09T21:41:34.707Z,80.82
2022-11-09T21:44:21.384Z,81.11
2022-11-09T21:47:07.679Z,80.84
2022-11-09T21:49:53.520Z,80.91
2022-11-09T21:52:39.480Z,81.00
2022-11-09T21:55:26.538Z,81.28
2022-11-09T21:58:12.407Z,81.20
2022-11-09T22:01:08.081Z,80.97
2022-11-09T22:03:53.913Z,81.37
2022-11-09T22:06:40.538Z,81.37
2022-11-09T22:09:29.523Z,81.28
2022-11-09T22:12:36.131Z,81.15
2022-11-09T22:15:40.213Z,81.43
2022-11-09T22:18:49.554Z,81.50
2022-11-09T22:21:35.286Z,81.34
2022-11-09T22:24:21.533Z,81.29
2022-11-09T22:27:07.566Z,80.90
2022-11-09T22:29:53.194Z,81.23
2022-11-09T22:32:38.852Z,81.07
2022-11-09T22:35:24.238Z,81.16
2022-11-09T22:38:09.937Z,81.45
2022-11-09T22:41:03.711Z,81.02
2022-11-09T22:43:49.108Z,80.92
2022-11-09T22:46:34.469Z,81.00
2022-11-09T22:49:20.202Z,80.95
2022-11-09T22:52:05.540Z,81.35
2022-11-09T22:54:51.237Z,81.17
2022-11-09T22:57:38.027Z,81.51
2022-11-09T23:00:23.860Z,80.98
2022-11-09T23:03:09.420Z,81.47
2022-11-09T23:06:01.209Z,81.81
2022-11-09T23:08:46.707Z,81.58
2022-11-09T23:11:33.087Z,81.45
2022-11-09T23:14:38.850Z,81.44
2022-11-09T23:17:42.902Z,81.57
2022-11-09T23:20:34.243Z,82.10
2022-11-09T23:23:21.513Z,81.63
2022-11-09T23:26:08.290Z,81.45
2022-11-09T23:28:54.590Z,81.58
2022-11-09T23:31:40.208Z,82.02
2022-11-09T23:34:25.600Z,81.69
2022-11-09T23:37:11.426Z,81.79
2022-11-09T23:39:57.276Z,81.75
2022-11-09T23:42:43.098Z,82.13
2022-11-09T23:45:29.657Z,82.05
2022-11-09T23:48:17.575Z,81.75
2022-11-09T23:51:03.913Z,81.54
2022-11-09T23:53:49.287Z,81.88
2022-11-09T23:56:35.075Z,81.48
2022-11-09T23:59:20.746Z,81.27
